地図

経路データ

SID SEASON NUMBER BASIN SUBBASIN NAME ISO_TIME NATURE LAT LON WMO_WIND WMO_PRES WMO_AGENCY TRACK_TYPE DIST2LAND LANDFALL IFLAG USA_AGENCY USA_ATCF_ID USA_LAT USA_LON USA_RECORD USA_STATUS USA_WIND USA_PRES USA_SSHS USA_R34_NE USA_R34_SE USA_R34_SW USA_R34_NW USA_R50_NE USA_R50_SE USA_R50_SW USA_R50_NW USA_R64_NE USA_R64_SE USA_R64_SW USA_R64_NW USA_POCI USA_ROCI USA_RMW USA_EYE TOKYO_LAT TOKYO_LON TOKYO_GRADE TOKYO_WIND TOKYO_PRES TOKYO_R50_DIR TOKYO_R50_LONG TOKYO_R50_SHORT TOKYO_R30_DIR TOKYO_R30_LONG TOKYO_R30_SHORT TOKYO_LAND CMA_LAT CMA_LON CMA_CAT CMA_WIND CMA_PRES HKO_LAT HKO_LON HKO_CAT HKO_WIND HKO_PRES NEWDELHI_LAT NEWDELHI_LON NEWDELHI_GRADE NEWDELHI_WIND NEWDELHI_PRES NEWDELHI_CI NEWDELHI_DP NEWDELHI_POCI REUNION_LAT REUNION_LON REUNION_TYPE REUNION_WIND REUNION_PRES REUNION_TNUM REUNION_CI REUNION_RMW REUNION_R34_NE REUNION_R34_SE REUNION_R34_SW REUNION_R34_NW REUNION_R50_NE REUNION_R50_SE REUNION_R50_SW REUNION_R50_NW REUNION_R64_NE REUNION_R64_SE REUNION_R64_SW REUNION_R64_NW BOM_LAT BOM_LON BOM_TYPE BOM_WIND BOM_PRES BOM_TNUM BOM_CI BOM_RMW BOM_R34_NE BOM_R34_SE BOM_R34_SW BOM_R34_NW BOM_R50_NE BOM_R50_SE BOM_R50_SW BOM_R50_NW BOM_R64_NE BOM_R64_SE BOM_R64_SW BOM_R64_NW BOM_ROCI BOM_POCI BOM_EYE BOM_POS_METHOD BOM_PRES_METHOD NADI_LAT NADI_LON NADI_CAT NADI_WIND NADI_PRES WELLINGTON_LAT WELLINGTON_LON WELLINGTON_WIND WELLINGTON_PRES DS824_LAT DS824_LON DS824_STAGE DS824_WIND DS824_PRES TD9636_LAT TD9636_LON TD9636_STAGE TD9636_WIND TD9636_PRES TD9635_LAT TD9635_LON TD9635_WIND TD9635_PRES TD9635_ROCI NEUMANN_LAT NEUMANN_LON NEUMANN_CLASS NEUMANN_WIND NEUMANN_PRES MLC_LAT MLC_LON MLC_CLASS MLC_WIND MLC_PRES USA_GUST BOM_GUST BOM_GUST_PER REUNION_GUST REUNION_GUST_PER USA_SEAHGT USA_SEARAD_NE USA_SEARAD_SE USA_SEARAD_SW USA_SEARAD_NW STORM_SPEED STORM_DIR
1888345S20066 1889 63 SI MM NOT_NAMED 1888-12-10 00:00:00 TS -20.0000 66.3000 main 887 887 _________O____ -1 -20.0000 66.3000 TC 3 0
1888345S20066 1889 63 SI MM NOT_NAMED 1888-12-10 03:00:00 TS -20.1550 66.2900 main 886 886 _________P____ -1 -20.1550 66.2900 TC 3 0
1888345S20066 1889 63 SI MM NOT_NAMED 1888-12-10 06:00:00 TS -20.3000 66.3000 main 886 886 _________O____ -1 -20.3000 66.3000 TC 3 169
1888345S20066 1889 63 SI MM NOT_NAMED 1888-12-10 09:00:00 TS -20.4350 66.3425 main 886 885 _________P____ -1 -20.4350 66.3425 TC 3 163
1888345S20066 1889 63 SI MM NOT_NAMED 1888-12-10 12:00:00 TS -20.6000 66.4000 main 896 896 _________O____ -1 -20.6000 66.4000 TC 4 167
1888345S20066 1889 63 SI MM NOT_NAMED 1888-12-10 15:00:00 TS -20.8425 66.4500 main 907 896 _________P____ -1 -20.8425 66.4500 TC 5 169
1888345S20066 1889 63 SI MM NOT_NAMED 1888-12-10 18:00:00 TS -21.1000 66.5000 main 909 909 _________O____ -1 -21.1000 66.5000 TC 5 169
1888345S20066 1889 63 SI MM NOT_NAMED 1888-12-10 21:00:00 TS -21.3000 66.5426 main 910 910 _________P____ -1 -21.3000 66.5426 TC 4 167
1888345S20066 1889 63 SI MM NOT_NAMED 1888-12-11 00:00:00 TS -21.5000 66.6000 main 923 923 _________O____ -1 -21.5000 66.6000 TC 5 163
1888345S20066 1889 63 SI MM NOT_NAMED 1888-12-11 03:00:00 TS -21.7500 66.6925 main 936 938 _________P____ -1 -21.7500 66.6925 TC 5 160
1888345S20066 1889 63 SI MM NOT_NAMED 1888-12-11 06:00:00 TS -22.0000 66.8000 main 952 952 _________O____ -1 -22.0000 66.8000 TC 5 157
1888345S20066 1889 63 SI MM NOT_NAMED 1888-12-11 09:00:00 TS -22.2075 66.9000 main 966 966 _________P____ -1 -22.2075 66.9000 TC 4 155
1888345S20066 1889 63 SI MM NOT_NAMED 1888-12-11 12:00:00 TS -22.4000 67.0000 main 980 980 _________O____ -1 -22.4000 67.0000 TC 4 155
1888345S20066 1889 63 SI MM NOT_NAMED 1888-12-11 15:00:00 TS -22.6000 67.1000 main 995 995 _________P____ -1 -22.6000 67.1000 TC 4 155
1888345S20066 1889 63 SI MM NOT_NAMED 1888-12-11 18:00:00 TS -22.8000 67.2000 main 1011 1011 _________O____ -1 -22.8000 67.2000 TC 4 156
1888345S20066 1889 63 SI MM NOT_NAMED 1888-12-11 21:00:00 TS -23.0000 67.2926 main 1026 1026 _________P____ -1 -23.0000 67.2926 TC 4 155
1888345S20066 1889 63 SI MM NOT_NAMED 1888-12-12 00:00:00 TS -23.2000 67.4000 main 1042 1042 _________O____ -1 -23.2000 67.4000 TC 5 150
1888345S20066 1889 63 SI MM NOT_NAMED 1888-12-12 03:00:00 TS -23.4000 67.5425 main 1058 1058 _________P____ -1 -23.4000 67.5425 TC 5 146
1888345S20066 1889 63 SI MM NOT_NAMED 1888-12-12 06:00:00 TS -23.6000 67.7000 main 1084 1084 _________O____ -1 -23.6000 67.7000 TC 5 145
1888345S20066 1889 63 SI MM NOT_NAMED 1888-12-12 09:00:00 TS -23.8075 67.8575 main 1111 1111 _________P____ -1 -23.8075 67.8575 TC 5 146
1888345S20066 1889 63 SI MM NOT_NAMED 1888-12-12 12:00:00 TS -24.0000 68.0000 main 1128 1128 _________O____ -1 -24.0000 68.0000 TC 4 148
1888345S20066 1889 63 SI MM NOT_NAMED 1888-12-12 15:00:00 TS -24.1650 68.1001 main 1145 1145 _________P____ -1 -24.1650 68.1001 TC 4 149
1888345S20066 1889 63 SI MM NOT_NAMED 1888-12-12 18:00:00 TS -24.3000 68.2000 main 1158 1158 _________O____ -1 -24.3000 68.2000 TC 3 136
1888345S20066 1889 63 SI MM NOT_NAMED 1888-12-12 21:00:00 TS -24.3925 68.3426 main 1172 1172 _________P____ -1 -24.3925 68.3426 TC 3 126
1888345S20066 1889 63 SI MM NOT_NAMED 1888-12-13 00:00:00 TS -24.5000 68.5000 main 1195 1195 _________O____ -1 -24.5000 68.5000 TC 4 136
1888345S20066 1889 63 SI MM NOT_NAMED 1888-12-13 03:00:00 TS -24.6850 68.6500 main 1221 1221 _________P____ -1 -24.6850 68.6500 TC 5 146
1888345S20066 1889 63 SI MM NOT_NAMED 1888-12-13 06:00:00 TS -24.9000 68.8000 main 1239 1239 _________O____ -1 -24.9000 68.8000 TC 5 147
1888345S20066 1889 63 SI MM NOT_NAMED 1888-12-13 09:00:00 TS -25.1075 68.9500 main 1266 1266 _________P____ -1 -25.1075 68.9500 TC 5 146
1888345S20066 1889 63 SI MM NOT_NAMED 1888-12-13 12:00:00 TS -25.3000 69.1000 main 1283 1283 _________O____ -1 -25.3000 69.1000 TC 4 143
1888345S20066 1889 63 SI MM NOT_NAMED 1888-12-13 15:00:00 TS -25.4650 69.2426 main 1301 1301 _________P____ -1 -25.4650 69.2426 TC 4 138
1888345S20066 1889 63 SI MM NOT_NAMED 1888-12-13 18:00:00 TS -25.6000 69.4000 main 1324 1324 _________O____ -1 -25.6000 69.4000 TC 4 128
1888345S20066 1889 63 SI MM NOT_NAMED 1888-12-13 21:00:00 TS -25.7076 69.5899 main 1347 1347 _________P____ -1 -25.7076 69.5899 TC 4 119
1888345S20066 1889 63 SI MM NOT_NAMED 1888-12-14 00:00:00 TS -25.8000 69.8000 main 1370 _________O____ -1 -25.8000 69.8000 TC 4 116

IBTrACS Databaseについて

本データベースは、米国NOAAが公開する1842年以降の世界の熱帯低気圧のベストトラックデータアーカイブInternational Best Track Archive for Climate Stewardship (IBTrACS)を、ウェブで閲覧しやすい形式に変換したものです。

最終更新日:2021-10-25